Time;durP1;ratioP1;P1;durP2;ratioP2;P2;SDS_P1;SDS_P2;PMS_P1;PMS_P2;Temp;Humidity;BMP_temperature;BMP_pressure;BME280_temperature;BME280_humidity;BME280_pressure;Samples;Min_cycle;Max_cycle;Signal;HPM_P1;HPM_P2
2022/05/31 00:02:45;;;;;;;8.55;6.07;;;;;;;16.58;96.29;97670.88;10284694;28;20069;-63
2022/05/31 00:07:44;;;;;;;11.35;5.82;;;;;;;16.71;95.78;97677.50;10291847;28;20073;-63
2022/05/31 00:12:43;;;;;;;10.70;7.07;;;;;;;16.78;95.22;97678.22;10291695;28;20068;-63
2022/05/31 00:17:42;;;;;;;15.25;6.63;;;;;;;16.75;94.76;97662.56;10291690;28;20478;-64
2022/05/31 00:22:44;;;;;;;7.93;5.90;;;;;;;16.83;94.63;97668.47;10266166;28;20062;-63
2022/05/31 00:27:43;;;;;;;9.77;6.18;;;;;;;16.85;94.26;97669.31;10252142;28;20512;-63
2022/05/31 00:32:49;;;;;;;9.90;6.47;;;;;;;16.78;93.73;97657.25;10251703;28;20065;-63
2022/05/31 00:37:48;;;;;;;10.75;6.65;;;;;;;16.76;94.15;97656.41;10275039;28;20065;-63
2022/05/31 00:42:54;;;;;;;11.40;7.00;;;;;;;16.79;94.24;97673.81;10292540;28;20100;-63
2022/05/31 00:47:53;;;;;;;10.88;7.28;;;;;;;16.69;94.89;97691.56;10292319;28;20062;-63
2022/05/31 00:52:58;;;;;;;15.27;6.43;;;;;;;16.65;94.96;97679.44;10284486;28;20069;-63
2022/05/31 00:58:15;;;;;;;9.00;6.00;;;;;;;16.59;94.79;97656.03;10251597;28;20486;-63
2022/05/31 01:03:17;;;;;;;10.27;5.88;;;;;;;16.50;94.81;97641.41;10252248;28;20069;-63
2022/05/31 01:08:17;;;;;;;10.98;5.40;;;;;;;16.70;94.39;97654.00;10252340;28;20058;-63
2022/05/31 01:13:17;;;;;;;11.32;5.85;;;;;;;16.67;93.85;97639.19;10285646;28;20492;-63
2022/05/31 01:18:17;;;;;;;12.77;6.63;;;;;;;16.76;93.81;97637.22;10295466;28;20462;-64
2022/05/31 01:23:17;;;;;;;13.82;7.05;;;;;;;16.77;93.75;97639.81;10295338;28;20489;-63
2022/05/31 01:28:28;;;;;;;11.45;6.88;;;;;;;16.73;93.81;97632.94;10281618;28;20062;-63
2022/05/31 01:33:32;;;;;;;9.30;6.60;;;;;;;16.37;95.87;97638.28;10255020;28;20057;-63
2022/05/31 01:38:40;;;;;;;10.60;6.35;;;;;;;15.99;97.14;97602.56;10254518;28;20062;-63
2022/05/31 01:43:43;;;;;;;12.57;7.45;;;;;;;15.96;98.12;97627.06;10254808;28;20062;-63
2022/05/31 01:48:43;;;;;;;14.98;7.03;;;;;;;15.74;99.37;97633.66;10330384;28;20092;-63
2022/05/31 01:53:43;;;;;;;12.55;7.72;;;;;;;15.60;99.71;97624.41;10299216;28;20057;-63
2022/05/31 01:58:47;;;;;;;12.30;6.85;;;;;;;15.66;98.91;97618.16;10302446;28;20065;-63
2022/05/31 02:03:47;;;;;;;14.10;7.30;;;;;;;15.68;98.69;97638.16;10283155;28;20504;-63
2022/05/31 02:08:46;;;;;;;12.75;7.13;;;;;;;15.62;98.50;97630.47;10333778;28;20192;-64
2022/05/31 02:13:45;;;;;;;;;;;;;;;15.55;98.34;97628.00;10300209;28;20554;-64
2022/05/31 02:24:11;;;;;;;15.07;7.40;;;;;;;15.32;98.62;97625.91;10297833;28;20069;-64
2022/05/31 02:29:12;;;;;;;10.57;7.45;;;;;;;15.27;98.65;97638.22;10295019;28;20493;-64
2022/05/31 02:34:14;;;;;;;12.77;7.95;;;;;;;15.26;98.39;97637.38;10298033;28;20068;-64
2022/05/31 02:39:13;;;;;;;13.82;8.25;;;;;;;15.18;98.47;97628.84;10257795;28;20496;-64
2022/05/31 02:44:12;;;;;;;;;;;;;;;15.24;98.24;97639.16;10256708;28;20081;-64
2022/05/31 02:49:12;;;;;;;13.03;8.73;;;;;;;15.19;98.32;97639.25;10257093;28;19961;-64
2022/05/31 02:54:13;;;;;;;13.30;7.97;;;;;;;15.13;98.19;97646.34;10257238;28;20081;-64
2022/05/31 02:59:13;;;;;;;14.90;8.48;;;;;;;15.13;98.37;97649.84;10271601;28;20061;-64
2022/05/31 03:04:13;;;;;;;15.25;9.20;;;;;;;15.01;98.21;97635.28;10256611;28;20065;-64
2022/05/31 03:09:12;;;;;;;17.30;9.43;;;;;;;15.10;98.34;97656.88;10256368;28;20073;-64
2022/05/31 03:14:16;;;;;;;;;;;;;;;15.02;99.19;97657.91;10292236;28;20026;-64
2022/05/31 03:19:27;;;;;;;13.20;8.73;;;;;;;15.03;98.98;97657.00;10295676;28;20402;-64
2022/05/31 03:24:38;;;;;;;14.48;9.07;;;;;;;15.06;99.00;97666.56;10326491;28;20147;-64
2022/05/31 03:29:42;;;;;;;15.52;9.38;;;;;;;15.10;98.70;97662.13;10302868;28;20074;-64
2022/05/31 03:34:41;;;;;;;16.65;10.13;;;;;;;15.12;98.73;97666.41;10285642;28;20062;-64
2022/05/31 03:39:40;;;;;;;21.83;11.00;;;;;;;15.12;98.61;97661.19;10252464;28;20062;-64
2022/05/31 03:44:39;;;;;;;;;;;;;;;15.23;98.76;97674.91;10254395;28;20457;-64
2022/05/31 03:49:38;;;;;;;17.83;9.57;;;;;;;15.19;98.81;97660.16;10267975;28;19920;-64
2022/05/31 03:54:37;;;;;;;14.57;9.48;;;;;;;15.34;98.91;97677.31;10253630;28;20189;-64
2022/05/31 03:59:37;;;;;;;15.05;10.27;;;;;;;15.41;98.64;97678.00;10285565;28;20189;-64
2022/05/31 04:04:36;;;;;;;15.55;10.18;;;;;;;15.43;98.97;97682.31;10253949;28;20070;-64
2022/05/31 04:09:35;;;;;;;16.52;10.30;;;;;;;15.47;99.03;97677.88;10259420;28;20054;-64
2022/05/31 04:14:34;;;;;;;;;;;;;;;15.64;99.05;97686.19;10295337;28;20144;-64
2022/05/31 04:19:34;;;;;;;17.27;10.90;;;;;;;15.58;99.44;97702.06;10297005;28;19922;-64
2022/05/31 04:24:33;;;;;;;14.68;9.43;;;;;;;15.40;100.00;97718.13;10269702;28;20053;-64
2022/05/31 04:29:34;;;;;;;14.82;8.25;;;;;;;15.34;100.00;97708.69;10282433;28;20069;-63
2022/05/31 04:34:33;;;;;;;13.77;9.40;;;;;;;15.36;100.00;97711.25;10269215;28;20493;-64
2022/05/31 04:39:32;;;;;;;;;;;;;;;15.60;100.00;97733.38;10296541;28;20469;-64
2022/05/31 04:44:31;;;;;;;14.27;7.57;;;;;;;15.73;99.92;97732.25;10293700;28;19913;-64
2022/05/31 04:49:30;;;;;;;;;;;;;;;16.03;99.26;97740.34;10328095;28;20050;-64
2022/05/31 04:54:30;;;;;;;13.15;7.97;;;;;;;16.27;98.77;97744.97;10297367;28;20000;-64
2022/05/31 04:59:29;;;;;;;19.83;8.52;;;;;;;16.57;97.94;97749.50;10296334;28;20129;-64
2022/05/31 05:04:28;;;;;;;;;;;;;;;16.84;97.67;97746.22;10293604;28;20118;-64
2022/05/31 05:09:28;;;;;;;13.10;8.33;;;;;;;16.97;96.59;97735.41;10296297;28;19913;-64
2022/05/31 05:14:27;;;;;;;11.40;7.22;;;;;;;17.22;95.88;97731.22;10290597;28;20060;-64
2022/05/31 05:19:26;;;;;;;15.35;7.95;;;;;;;17.56;94.45;97746.81;10290920;28;20038;-64
2022/05/31 05:24:25;;;;;;;;;;;;;;;17.71;92.03;97756.03;10300485;28;20034;-64
2022/05/31 05:34:41;;;;;;;11.27;7.50;;;;;;;18.10;90.67;97758.34;10297388;28;20068;-64
2022/05/31 05:39:40;;;;;;;11.32;6.43;;;;;;;18.34;88.52;97750.63;10297727;28;20065;-64
2022/05/31 05:44:40;;;;;;;12.95;7.15;;;;;;;18.50;88.71;97751.84;10298740;28;20125;-63
2022/05/31 05:49:38;;;;;;;12.32;6.65;;;;;;;18.84;86.53;97758.63;10296733;28;20058;-64
2022/05/31 05:54:37;;;;;;;11.18;7.28;;;;;;;18.88;84.45;97748.84;10298587;28;20061;-65
2022/05/31 05:59:36;;;;;;;10.25;6.70;;;;;;;18.98;84.43;97766.03;10298672;28;20025;-64
2022/05/31 06:04:41;;;;;;;10.05;6.55;;;;;;;18.90;84.07;97750.53;10293139;28;20032;-63
2022/05/31 06:09:49;;;;;;;10.63;6.95;;;;;;;19.19;83.74;97765.28;10294166;28;20477;-63
2022/05/31 06:14:56;;;;;;;10.20;6.70;;;;;;;19.37;83.65;97755.88;10299056;28;20064;-64
2022/05/31 06:19:55;;;;;;;12.40;6.60;;;;;;;19.46;80.87;97744.13;10298769;28;20099;-64
2022/05/31 06:24:57;;;;;;;8.57;5.45;;;;;;;19.62;80.02;97750.59;10298696;28;20037;-64
2022/05/31 06:29:56;;;;;;;9.20;4.93;;;;;;;19.69;79.72;97718.78;10296438;28;20481;-64
2022/05/31 06:34:56;;;;;;;9.27;5.63;;;;;;;20.06;79.33;97734.00;10264989;28;20042;-63
2022/05/31 06:39:54;;;;;;;9.55;5.10;;;;;;;20.23;79.23;97721.00;10274798;28;20050;-64
2022/05/31 06:44:54;;;;;;;9.82;4.95;;;;;;;20.58;76.16;97742.44;10311490;28;20026;-63
2022/05/31 06:49:53;;;;;;;8.85;5.15;;;;;;;20.75;74.44;97733.84;10291556;28;20065;-63
2022/05/31 07:00:18;;;;;;;8.57;4.65;;;;;;;21.04;72.60;97722.03;10298020;28;20050;-63
2022/05/31 07:05:19;;;;;;;9.57;5.05;;;;;;;21.25;72.87;97728.19;10288589;28;20066;-63
2022/05/31 07:10:18;;;;;;;9.52;5.20;;;;;;;21.27;72.14;97733.41;10296278;28;20069;-64
2022/05/31 07:15:17;;;;;;;7.50;4.78;;;;;;;21.07;69.46;97708.69;10296811;28;20061;-63
2022/05/31 07:20:16;;;;;;;7.55;4.50;;;;;;;21.34;68.59;97730.41;10296283;28;20476;-64
2022/05/31 07:25:15;;;;;;;5.97;4.10;;;;;;;21.34;67.62;97730.41;10288606;28;20061;-63
2022/05/31 07:30:14;;;;;;;8.48;4.63;;;;;;;21.02;67.31;97688.72;10294982;28;20112;-63
2022/05/31 07:35:13;;;;;;;9.27;4.47;;;;;;;21.50;66.97;97727.06;10289722;28;20037;-63
2022/05/31 07:40:12;;;;;;;6.68;4.57;;;;;;;21.68;66.83;97722.72;10295969;28;20076;-63
2022/05/31 07:45:11;;;;;;;7.75;5.07;;;;;;;21.99;66.46;97724.81;10265241;28;20081;-63
2022/05/31 07:50:11;;;;;;;5.78;4.53;;;;;;;22.06;65.92;97715.69;10284373;28;20069;-64
2022/05/31 07:55:10;;;;;;;8.73;4.50;;;;;;;22.39;65.48;97718.47;10282118;28;20135;-63
2022/05/31 08:00:09;;;;;;;7.07;5.07;;;;;;;22.46;62.55;97692.56;10295232;28;20057;-63
2022/05/31 08:05:09;;;;;;;8.75;5.30;;;;;;;22.65;62.69;97703.06;10283427;28;20116;-64
2022/05/31 08:10:09;;;;;;;6.95;4.70;;;;;;;22.84;63.00;97699.53;10294990;28;20505;-63
2022/05/31 08:15:08;;;;;;;8.30;4.55;;;;;;;23.02;61.08;97685.31;10294479;28;20069;-63
2022/05/31 08:20:08;;;;;;;8.07;4.60;;;;;;;23.07;59.73;97701.84;10294122;28;20516;-63
2022/05/31 08:25:08;;;;;;;6.95;4.60;;;;;;;23.01;57.80;97676.53;10278482;28;20076;-64
2022/05/31 08:30:07;;;;;;;9.27;5.28;;;;;;;23.38;58.31;97692.25;10292231;28;20073;-64
2022/05/31 08:35:07;;;;;;;7.22;4.97;;;;;;;23.58;56.57;97694.72;10282649;28;20062;-64
2022/05/31 08:40:06;;;;;;;8.57;5.13;;;;;;;23.56;56.00;97669.22;10277974;28;20054;-64
2022/05/31 08:45:44;;;;;;;6.32;4.93;;;;;;;23.70;56.86;97692.31;10296120;28;20057;-64
2022/05/31 09:01:50;;;;;;;6.30;5.40;;;;;;;24.25;56.74;97683.94;10311574;28;20069;-64
2022/05/31 09:06:51;;;;;;;9.02;5.35;;;;;;;24.34;57.13;97680.75;10309754;28;20084;-64
2022/05/31 09:12:03;;;;;;;11.63;4.93;;;;;;;24.55;57.14;97675.16;10291224;28;20488;-64
2022/05/31 09:17:11;;;;;;;7.93;5.10;;;;;;;24.79;55.53;97664.88;10283022;28;20429;-65
2022/05/31 09:22:10;;;;;;;7.70;4.82;;;;;;;24.85;54.19;97669.81;10254536;28;20062;-64
2022/05/31 09:27:09;;;;;;;9.32;5.15;;;;;;;25.04;55.67;97661.63;10272401;28;20068;-64
2022/05/31 09:32:25;;;;;;;9.10;5.07;;;;;;;25.13;56.21;97661.06;10295301;28;20545;-64
2022/05/31 09:38:14;;;;;;;8.07;5.03;;;;;;;25.02;57.39;97650.22;10294760;28;20073;-64
2022/05/31 09:43:25;;;;;;;6.80;5.05;;;;;;;25.27;56.73;97671.69;10294914;28;20065;-64
2022/05/31 09:48:24;;;;;;;8.15;4.65;;;;;;;25.07;56.31;97658.75;10293290;28;20147;-64
2022/05/31 09:59:09;;;;;;;8.95;5.45;;;;;;;25.36;52.34;97646.31;10297527;28;20054;-65
2022/05/31 10:04:11;;;;;;;9.57;4.88;;;;;;;25.45;53.73;97645.75;10291244;28;20061;-65
2022/05/31 10:09:16;;;;;;;8.00;4.90;;;;;;;25.93;53.46;97651.56;10292720;28;20065;-63
2022/05/31 10:14:30;;;;;;;6.97;4.30;;;;;;;26.16;52.53;97649.22;10289289;28;20058;-64
2022/05/31 10:19:30;;;;;;;8.13;4.55;;;;;;;26.01;51.84;97648.41;10293233;28;20069;-64
2022/05/31 10:24:29;;;;;;;7.72;4.60;;;;;;;26.00;51.34;97633.41;10298835;28;20061;-63
2022/05/31 10:29:33;;;;;;;5.75;4.13;;;;;;;26.22;51.31;97632.88;10293299;28;20036;-63
2022/05/31 10:34:35;;;;;;;11.27;4.93;;;;;;;26.31;50.42;97628.75;10293163;28;20053;-64
2022/05/31 10:39:37;;;;;;;8.23;4.65;;;;;;;26.75;49.09;97636.38;10289458;28;20061;-64
2022/05/31 10:44:44;;;;;;;6.88;4.43;;;;;;;26.91;46.49;97593.59;10293346;28;20060;-63
2022/05/31 10:49:45;;;;;;;5.45;3.90;;;;;;;27.05;45.87;97623.72;10296994;28;20053;-64
2022/05/31 10:55:18;;;;;;;8.60;4.60;;;;;;;26.68;46.23;97623.59;10294112;28;20068;-64
2022/05/31 11:00:21;;;;;;;8.18;5.00;;;;;;;26.35;46.92;97622.28;10297722;28;20065;-63
2022/05/31 11:05:32;;;;;;;7.95;4.82;;;;;;;25.78;50.67;97630.44;10297560;28;20064;-63
2022/05/31 11:16:47;;;;;;;10.50;5.20;;;;;;;24.94;60.90;97649.84;10296093;28;20069;-64
2022/05/31 11:21:54;;;;;;;10.13;6.07;;;;;;;24.98;61.30;97646.06;10322254;28;20062;-64
2022/05/31 11:27:10;;;;;;;12.18;5.63;;;;;;;24.98;63.92;97632.78;10304406;28;20505;-63
2022/05/31 11:32:17;;;;;;;11.18;5.82;;;;;;;25.06;63.34;97627.88;10278505;28;20152;-63
2022/05/31 11:37:22;;;;;;;10.07;6.05;;;;;;;24.97;62.06;97621.31;10286183;28;20125;-63
2022/05/31 11:42:29;;;;;;;9.43;5.90;;;;;;;24.96;62.24;97618.75;10286002;28;20105;-64
2022/05/31 11:47:46;;;;;;;11.60;5.80;;;;;;;24.88;62.37;97630.69;10305175;28;20187;-64
2022/05/31 11:53:07;;;;;;;9.45;5.32;;;;;;;24.86;62.26;97637.88;10319881;28;21803;-64
2022/05/31 11:58:18;;;;;;;10.32;5.88;;;;;;;24.77;61.61;97633.09;10277516;28;20133;-64
2022/05/31 12:03:34;;;;;;;9.52;6.05;;;;;;;24.89;62.58;97640.38;10285124;28;20112;-64
2022/05/31 12:08:42;;;;;;;10.65;5.90;;;;;;;24.60;65.16;97659.81;10261602;28;20126;-64
2022/05/31 12:13:47;;;;;;;11.18;6.35;;;;;;;24.41;68.92;97641.47;10265947;28;20149;-64
2022/05/31 12:19:03;;;;;;;11.55;6.55;;;;;;;24.77;67.34;97611.03;10287631;28;20100;-65
2022/05/31 12:24:13;;;;;;;12.45;6.32;;;;;;;25.44;63.07;97633.41;10275912;28;20197;-64
2022/05/31 12:29:27;;;;;;;8.48;4.93;;;;;;;25.74;58.28;97614.69;10281652;28;20073;-64
2022/05/31 12:34:31;;;;;;;8.93;5.20;;;;;;;25.91;55.27;97610.94;10296392;28;20060;-65
2022/05/31 12:39:33;;;;;;;12.48;6.22;;;;;;;26.15;55.14;97595.16;10253903;28;20060;-64
2022/05/31 12:44:36;;;;;;;9.27;5.38;;;;;;;26.51;53.70;97596.31;10276770;28;20125;-64
2022/05/31 12:49:37;;;;;;;7.93;4.70;;;;;;;26.81;53.27;97595.16;10286476;28;20061;-65
2022/05/31 12:54:50;;;;;;;7.93;4.65;;;;;;;27.39;52.10;97577.72;10286872;28;20057;-64
2022/05/31 12:59:52;;;;;;;7.20;4.53;;;;;;;27.84;49.91;97574.50;10286421;28;20068;-65
2022/05/31 13:04:58;;;;;;;5.72;4.38;;;;;;;27.83;47.76;97580.81;10280850;28;20157;-65
2022/05/31 13:10:34;;;;;;;9.13;4.20;;;;;;;27.60;48.34;97523.84;10286546;28;20065;-64
2022/05/31 13:19:34;;;;;;;7.25;4.50;;;;;;;28.32;46.55;97579.81;10280313;28;20129;-64
2022/05/31 13:21:10;;;;;;;11.23;4.90;;;;;;;28.65;47.47;97588.88;10283705;28;20562;-64
2022/05/31 13:26:16;;;;;;;7.68;4.28;;;;;;;29.03;45.90;97566.34;10279563;28;20113;-65
2022/05/31 13:31:21;;;;;;;8.90;4.70;;;;;;;29.38;43.87;97568.91;10277712;28;20557;-64
2022/05/31 13:36:27;;;;;;;9.02;4.07;;;;;;;29.05;41.81;97573.28;10276801;28;20095;-64
2022/05/31 13:41:27;;;;;;;7.18;4.47;;;;;;;28.71;41.45;97567.06;10246172;28;20512;-64
2022/05/31 13:46:31;;;;;;;6.78;3.92;;;;;;;28.35;43.52;97557.38;10252029;28;20117;-65
2022/05/31 13:51:31;;;;;;;5.20;4.00;;;;;;;28.20;44.03;97546.91;10260258;28;20142;-64
2022/05/31 13:56:30;;;;;;;8.68;4.30;;;;;;;28.12;45.26;97535.97;10273002;28;20169;-64
2022/05/31 14:01:31;;;;;;;7.07;3.80;;;;;;;27.92;44.56;97542.78;10264858;28;20389;-64
2022/05/31 14:06:34;;;;;;;9.10;4.22;;;;;;;27.54;45.44;97532.28;10263379;28;20062;-64
2022/05/31 14:11:43;;;;;;;6.00;4.28;;;;;;;27.55;46.04;97542.00;10292455;28;20141;-64
2022/05/31 14:16:42;;;;;;;6.57;4.30;;;;;;;27.41;46.17;97535.84;10294110;28;20057;-64
2022/05/31 14:21:44;;;;;;;7.22;4.78;;;;;;;27.44;47.57;97544.56;10286938;28;20141;-64
2022/05/31 14:26:47;;;;;;;6.30;4.28;;;;;;;27.78;46.56;97537.66;10289692;28;20104;-64
2022/05/31 14:32:03;;;;;;;8.07;4.10;;;;;;;27.63;45.60;97526.28;10294315;28;20065;-64
2022/05/31 14:37:03;;;;;;;7.05;4.30;;;;;;;27.68;46.18;97536.59;10294084;28;20049;-64
2022/05/31 14:42:14;;;;;;;7.47;4.20;;;;;;;27.53;46.27;97522.59;10292451;28;20119;-64
2022/05/31 14:47:24;;;;;;;6.22;4.05;;;;;;;27.64;46.79;97495.16;10290093;28;20069;-64
2022/05/31 14:52:46;;;;;;;5.93;4.25;;;;;;;27.46;47.30;97489.34;10293367;28;20057;-63
2022/05/31 15:03:33;;;;;;;8.82;4.13;;;;;;;27.15;47.15;97511.09;10290759;28;20069;-63
2022/05/31 15:08:41;;;;;;;8.35;4.75;;;;;;;26.79;47.32;97522.50;10290416;28;20152;-63
2022/05/31 15:18:59;;;;;;;7.45;5.03;;;;;;;26.25;49.57;97536.03;10294385;28;20065;-63
2022/05/31 15:23:59;;;;;;;7.50;4.70;;;;;;;26.00;51.33;97539.50;10296254;28;20045;-63
2022/05/31 15:28:58;;;;;;;11.23;4.95;;;;;;;25.24;50.14;97488.59;10265737;28;20129;-65
2022/05/31 15:33:58;;;;;;;8.43;5.00;;;;;;;25.17;50.84;97608.59;10287345;28;20057;-65
2022/05/31 15:39:00;;;;;;;22.05;8.98;;;;;;;23.61;71.43;97614.22;10277361;28;20128;-66
2022/05/31 15:44:02;;;;;;;13.48;4.68;;;;;;;19.35;79.56;97646.34;10288120;28;20076;-67
2022/05/31 16:21:28;;;;;;;19.10;9.70;;;;;;;14.38;100.00;97918.44;10428317;27;20531;-63
2022/05/31 16:26:29;;;;;;;17.40;10.43;;;;;;;14.43;100.00;97949.69;10400844;28;20195;-62
2022/05/31 16:31:29;;;;;;;16.45;10.13;;;;;;;14.51;100.00;97944.38;10399896;28;20139;-62
2022/05/31 16:36:29;;;;;;;14.73;9.27;;;;;;;14.67;100.00;97955.47;10398443;28;20115;-62
2022/05/31 16:41:29;;;;;;;18.27;9.57;;;;;;;14.92;100.00;97953.38;10396633;28;20132;-63
2022/05/31 16:46:29;;;;;;;14.05;8.63;;;;;;;14.70;100.00;97874.44;10394476;28;20111;-63
2022/05/31 16:51:34;;;;;;;14.82;10.02;;;;;;;15.28;100.00;97932.78;10397497;28;20120;-63
2022/05/31 16:56:40;;;;;;;18.05;11.13;;;;;;;15.42;100.00;97892.41;10388375;28;20111;-62
2022/05/31 17:01:39;;;;;;;20.23;11.98;;;;;;;15.27;100.00;97869.16;10400221;28;20119;-62
2022/05/31 17:17:14;;;;;;;22.05;14.15;;;;;;;15.63;100.00;97867.59;10390166;28;20139;-62
2022/05/31 17:22:13;;;;;;;;;;;;;;;15.72;100.00;97844.78;10372750;28;20119;-62
2022/05/31 17:27:12;;;;;;;21.75;14.00;;;;;;;15.73;100.00;97855.19;10372913;28;19934;-62
2022/05/31 17:32:10;;;;;;;;;;;;;;;15.78;100.00;97855.97;10370941;28;20220;-62
2022/05/31 17:37:09;;;;;;;52.50;27.60;;;;;;;15.67;100.00;97810.88;10370528;28;20007;-63
2022/05/31 17:42:08;;;;;;;;;;;;;;;15.79;100.00;97807.16;10372204;28;20140;-63
2022/05/31 17:47:07;;;;;;;20.07;13.43;;;;;;;15.71;100.00;97833.44;10366959;28;19923;-62
2022/05/31 17:52:06;;;;;;;;;;;;;;;15.49;100.00;97840.88;10367346;28;20040;-63
2022/05/31 17:57:05;;;;;;;19.38;12.23;;;;;;;15.30;100.00;97821.19;10391725;28;20421;-62
2022/05/31 18:02:07;;;;;;;20.45;15.02;;;;;;;15.11;100.00;97782.31;10368356;28;20111;-63
2022/05/31 18:07:09;;;;;;;19.80;14.52;;;;;;;15.33;100.00;97832.44;10370153;28;20127;-63
2022/05/31 18:12:08;;;;;;;25.42;15.18;;;;;;;15.30;100.00;97826.41;10368468;28;20137;-63
2022/05/31 18:17:08;;;;;;;20.67;15.35;;;;;;;15.59;100.00;97847.63;10369259;28;20083;-63
2022/05/31 18:22:13;;;;;;;23.92;15.57;;;;;;;15.40;100.00;97822.72;10368517;28;20148;-63
2022/05/31 18:27:14;;;;;;;20.88;14.93;;;;;;;15.68;100.00;97870.13;10368809;28;20132;-63
2022/05/31 18:32:20;;;;;;;26.73;16.48;;;;;;;15.58;100.00;97858.13;10368144;28;20232;-63
2022/05/31 18:42:33;;;;;;;26.00;16.73;;;;;;;15.57;100.00;97864.25;10312133;28;20141;-63
2022/05/31 18:47:32;;;;;;;23.35;16.30;;;;;;;15.34;100.00;97825.44;10307067;28;20117;-63
2022/05/31 18:52:31;;;;;;;21.52;15.00;;;;;;;15.45;100.00;97850.50;10288903;28;20116;-63
2022/05/31 18:57:31;;;;;;;;;;;;;;;15.61;100.00;97872.00;10287130;28;20101;-63
2022/05/31 19:02:34;;;;;;;;;;;;;;;15.58;100.00;97887.75;10306967;28;20013;-63
2022/05/31 19:07:33;;;;;;;25.08;15.30;;;;;;;15.59;100.00;97881.63;10291974;28;20004;-64
2022/05/31 19:12:34;;;;;;;26.05;16.23;;;;;;;15.35;100.00;97821.97;10309770;28;20112;-63
2022/05/31 19:17:46;;;;;;;24.67;16.40;;;;;;;15.58;100.00;97863.38;10288476;28;20129;-63
2022/05/31 19:22:47;;;;;;;26.42;16.95;;;;;;;15.59;100.00;97854.63;10301929;28;20140;-63
2022/05/31 19:27:46;;;;;;;29.20;18.20;;;;;;;15.51;100.00;97828.63;10303099;28;20113;-63
2022/05/31 19:32:47;;;;;;;;;;;;;;;15.65;100.00;97854.50;10308517;28;20120;-63
2022/05/31 19:37:49;;;;;;;20.85;14.45;;;;;;;15.45;100.00;97824.34;10299094;28;20027;-63
2022/05/31 19:42:48;;;;;;;21.33;13.60;;;;;;;15.54;100.00;97846.84;10301873;28;20112;-63
2022/05/31 19:47:47;;;;;;;15.98;10.60;;;;;;;14.93;100.00;97764.38;10304082;28;20113;-63
2022/05/31 19:52:47;;;;;;;;;;;;;;;15.35;100.00;97838.50;10295206;28;20038;-63
2022/05/31 19:57:45;;;;;;;16.60;10.17;;;;;;;15.19;100.00;97819.63;10305871;28;20044;-63
2022/05/31 20:02:45;;;;;;;;;;;;;;;15.17;100.00;97824.00;10300880;28;20121;-64
2022/05/31 20:07:44;;;;;;;14.07;9.17;;;;;;;15.11;100.00;97813.69;10296511;28;20016;-64
2022/05/31 20:12:47;;;;;;;15.77;10.23;;;;;;;14.93;100.00;97798.34;10300285;28;20145;-64
2022/05/31 20:18:03;;;;;;;18.92;12.82;;;;;;;14.77;100.00;97775.06;10302954;28;20124;-64
2022/05/31 20:23:03;;;;;;;20.85;12.98;;;;;;;14.91;100.00;97787.91;10278948;28;20145;-64
2022/05/31 20:28:06;;;;;;;20.38;13.65;;;;;;;14.92;100.00;97788.75;10307501;28;20057;-64
2022/05/31 20:33:07;;;;;;;23.67;14.18;;;;;;;15.06;100.00;97804.19;10310668;28;20077;-64
2022/05/31 20:38:07;;;;;;;20.45;13.55;;;;;;;14.47;100.00;97705.06;10303110;28;20068;-64
2022/05/31 20:43:07;;;;;;;18.13;12.10;;;;;;;14.91;100.00;97787.03;10291535;28;20072;-64
2022/05/31 20:48:06;;;;;;;15.70;10.30;;;;;;;14.98;100.00;97799.97;10312891;28;20573;-64
2022/05/31 20:53:05;;;;;;;;;;;;;;;14.87;100.00;97812.34;10317158;28;20500;-65
2022/05/31 20:58:04;;;;;;;13.90;8.45;;;;;;;14.61;100.00;97779.66;10292455;28;20063;-65
2022/05/31 21:03:03;;;;;;;15.43;8.95;;;;;;;14.67;100.00;97794.38;10310009;28;20037;-65
2022/05/31 21:08:03;;;;;;;;;;;;;;;14.62;100.00;97804.91;10320880;28;20057;-65
2022/05/31 21:13:02;;;;;;;10.80;6.82;;;;;;;14.57;100.00;97800.66;10322685;28;20344;-63
2022/05/31 21:18:01;;;;;;;;;;;;;;;14.53;100.00;97793.75;10316075;28;20073;-64
2022/05/31 21:23:01;;;;;;;12.30;6.03;;;;;;;14.29;100.00;97761.03;10319072;28;19968;-64
2022/05/31 21:28:04;;;;;;;13.77;6.78;;;;;;;14.52;100.00;97794.63;10308187;28;20053;-63
2022/05/31 21:33:04;;;;;;;12.70;7.88;;;;;;;14.07;100.00;97724.00;10314654;28;20069;-64
2022/05/31 21:38:05;;;;;;;11.93;7.38;;;;;;;14.53;100.00;97798.97;10286482;28;20060;-64
2022/05/31 21:43:05;;;;;;;13.63;7.45;;;;;;;14.36;100.00;97771.38;10311544;28;20484;-63
2022/05/31 21:48:07;;;;;;;15.10;9.40;;;;;;;13.98;100.00;97710.22;10300434;28;20654;-64
2022/05/31 21:53:08;;;;;;;14.73;8.63;;;;;;;14.39;100.00;97781.78;10321849;28;20489;-64
2022/05/31 21:58:07;;;;;;;14.35;8.77;;;;;;;14.43;100.00;97785.22;10303534;28;20097;-64
2022/05/31 22:03:06;;;;;;;;;;;;;;;14.44;100.00;97796.50;10295792;28;20188;-64
2022/05/31 22:08:06;;;;;;;15.00;8.03;;;;;;;14.40;100.00;97786.13;10255395;28;19956;-64
2022/05/31 22:13:06;;;;;;;14.60;8.45;;;;;;;14.35;100.00;97772.25;10255042;28;20066;-64
2022/05/31 22:18:06;;;;;;;14.15;9.27;;;;;;;14.38;100.00;97774.84;10285612;28;20096;-63
2022/05/31 22:23:06;;;;;;;17.98;9.35;;;;;;;14.43;100.00;97793.03;10294680;28;20143;-63
2022/05/31 22:28:05;;;;;;;21.70;11.15;;;;;;;14.39;100.00;97788.75;10278448;28;20132;-63
2022/05/31 22:33:04;;;;;;;;;;;;;;;14.36;100.00;97794.88;10278192;28;20076;-63
2022/05/31 22:38:07;;;;;;;21.53;10.20;;;;;;;14.29;100.00;97793.25;10295456;28;19941;-63
2022/05/31 22:43:13;;;;;;;19.92;11.20;;;;;;;14.19;100.00;97799.47;10274520;28;20073;-63
2022/05/31 22:48:13;;;;;;;21.52;11.70;;;;;;;14.17;100.00;97798.63;10288673;28;20078;-63
2022/05/31 22:53:12;;;;;;;15.65;9.75;;;;;;;14.09;100.00;97810.94;10267134;28;20520;-63
2022/05/31 22:58:11;;;;;;;;;;;;;;;13.94;100.00;97797.25;10290207;28;20085;-63
2022/05/31 23:03:14;;;;;;;14.07;7.22;;;;;;;13.74;100.00;97778.38;10270481;28;19948;-62
2022/05/31 23:08:14;;;;;;;14.77;7.45;;;;;;;13.80;100.00;97799.19;10275157;28;20161;-63
2022/05/31 23:13:14;;;;;;;14.65;7.38;;;;;;;13.56;100.00;97771.66;10277279;28;20148;-62
2022/05/31 23:18:18;;;;;;;10.90;6.55;;;;;;;13.64;100.00;97787.22;10277486;28;20077;-62
2022/05/31 23:28:36;;;;;;;12.57;5.87;;;;;;;13.00;100.00;97715.81;10287007;28;20069;-63
2022/05/31 23:33:42;;;;;;;10.68;5.78;;;;;;;13.21;100.00;97777.25;10293876;28;20362;-63
2022/05/31 23:38:41;;;;;;;10.63;6.45;;;;;;;13.13;100.00;97790.38;10292136;28;20065;-63
2022/05/31 23:43:41;;;;;;;12.77;6.50;;;;;;;13.03;100.00;97788.75;10291851;28;20048;-63
2022/05/31 23:48:40;;;;;;;13.73;6.00;;;;;;;12.73;100.00;97770.78;10276250;28;20062;-63
2022/05/31 23:53:42;;;;;;;12.50;5.88;;;;;;;12.87;100.00;97809.72;10253406;28;20066;-63
2022/05/31 23:58:41;;;;;;;12.15;5.78;;;;;;;12.68;100.00;97801.22;10275986;28;20061;-63
